createdAt,value
2022-09-22T00:03:43.636Z,11.58
2022-09-22T00:08:51.488Z,11.50
2022-09-22T00:14:01.891Z,11.42
2022-09-22T00:19:26.909Z,11.36
2022-09-22T00:24:29.730Z,11.26
2022-09-22T00:29:31.985Z,11.26
2022-09-22T00:34:33.765Z,11.21
2022-09-22T00:39:37.005Z,11.15
2022-09-22T00:44:40.491Z,11.11
2022-09-22T00:49:53.887Z,11.04
2022-09-22T00:55:00.886Z,11.06
2022-09-22T01:00:06.492Z,11.07
2022-09-22T01:05:09.141Z,11.07
2022-09-22T01:10:11.390Z,11.06
2022-09-22T01:15:13.071Z,11.03
2022-09-22T01:20:45.335Z,10.95
2022-09-22T01:26:14.390Z,10.82
2022-09-22T01:31:38.945Z,10.56
2022-09-22T01:37:11.631Z,10.40
2022-09-22T01:42:17.161Z,10.24
2022-09-22T01:47:23.065Z,10.03
2022-09-22T01:52:31.125Z,9.91
2022-09-22T01:57:54.537Z,9.69
2022-09-22T02:03:10.934Z,9.70
2022-09-22T02:08:21.805Z,9.62
2022-09-22T02:13:23.756Z,9.56
2022-09-22T02:18:30.589Z,9.46
2022-09-22T02:23:32.596Z,9.47
2022-09-22T02:28:38.659Z,9.45
2022-09-22T02:33:41.501Z,9.17
2022-09-22T02:38:56.296Z,9.10
2022-09-22T02:44:13.373Z,9.12
2022-09-22T02:49:18.304Z,9.26
2022-09-22T02:54:20.424Z,9.30
2022-09-22T02:59:22.253Z,9.35
2022-09-22T03:04:24.077Z,9.39
2022-09-22T03:09:25.896Z,9.38
2022-09-22T03:14:27.721Z,9.36
2022-09-22T03:19:29.318Z,9.28
2022-09-22T03:24:30.941Z,9.24
2022-09-22T03:29:32.905Z,9.25
2022-09-22T03:34:35.005Z,9.22
2022-09-22T03:39:36.592Z,9.24
2022-09-22T03:44:38.404Z,9.27
2022-09-22T03:49:40.403Z,9.25
2022-09-22T03:54:42.099Z,9.23
2022-09-22T03:59:43.685Z,9.16
2022-09-22T04:04:45.298Z,9.11
2022-09-22T04:09:46.921Z,9.03
2022-09-22T04:14:48.770Z,8.87
2022-09-22T04:19:50.475Z,8.72
2022-09-22T04:24:52.393Z,8.74
2022-09-22T04:29:54.187Z,8.61
2022-09-22T04:34:55.832Z,8.56
2022-09-22T04:39:59.181Z,8.46
2022-09-22T04:45:03.019Z,8.29
2022-09-22T04:50:05.391Z,8.15
2022-09-22T04:55:08.184Z,8.11
2022-09-22T05:00:10.502Z,8.12
2022-09-22T05:05:12.985Z,8.16
2022-09-22T05:10:17.897Z,8.19
2022-09-22T05:15:20.744Z,8.22
2022-09-22T05:20:22.597Z,8.23
2022-09-22T05:25:25.285Z,8.29
2022-09-22T05:30:27.241Z,8.44
2022-09-22T05:35:32.985Z,8.63
2022-09-22T05:40:37.585Z,8.83
2022-09-22T05:45:39.867Z,9.03
2022-09-22T05:50:43.588Z,9.04
2022-09-22T05:55:45.396Z,9.09
2022-09-22T06:00:47.298Z,9.12
2022-09-22T06:05:49.609Z,9.37
2022-09-22T06:10:51.520Z,9.63
2022-09-22T06:15:53.147Z,9.94
2022-09-22T06:20:56.286Z,10.21
2022-09-22T06:25:59.235Z,10.41
2022-09-22T06:31:01.720Z,10.70
2022-09-22T06:36:07.186Z,10.92
2022-09-22T06:41:09.481Z,11.11
2022-09-22T06:46:13.549Z,11.32
2022-09-22T06:51:15.177Z,11.55
2022-09-22T06:56:19.730Z,11.77
2022-09-22T07:01:21.463Z,11.96
2022-09-22T07:06:23.112Z,12.17
2022-09-22T07:11:25.050Z,12.41
2022-09-22T07:16:26.936Z,12.74
2022-09-22T07:21:34.957Z,12.97
2022-09-22T07:26:38.986Z,13.27
2022-09-22T07:31:41.912Z,13.30
2022-09-22T07:36:45.092Z,13.24
2022-09-22T07:41:48.040Z,13.23
2022-09-22T07:46:49.774Z,13.09
2022-09-22T07:51:55.240Z,13.12
2022-09-22T07:56:58.800Z,13.21
2022-09-22T08:02:01.198Z,13.26
2022-09-22T08:07:03.155Z,13.30
2022-09-22T08:12:05.458Z,13.30
2022-09-22T08:17:12.173Z,13.39
2022-09-22T08:22:13.744Z,13.37
2022-09-22T08:27:15.336Z,13.43
2022-09-22T08:32:18.583Z,13.32
2022-09-22T08:37:20.610Z,13.35
2022-09-22T08:42:23.471Z,13.42
2022-09-22T08:48:10.588Z,13.51
2022-09-22T08:53:16.517Z,13.65
2022-09-22T08:58:33.508Z,13.65
2022-09-22T09:04:01.781Z,13.76
2022-09-22T09:09:27.628Z,13.92
2022-09-22T09:14:55.972Z,14.14
2022-09-22T09:20:21.704Z,14.35
2022-09-22T09:25:35.877Z,14.33
2022-09-22T09:30:50.148Z,14.59
2022-09-22T09:35:53.626Z,14.31
2022-09-22T09:41:36.440Z,14.67
2022-09-22T09:46:49.383Z,15.00
2022-09-22T09:51:54.881Z,14.68
2022-09-22T09:57:09.537Z,14.91
2022-09-22T10:02:15.136Z,15.19
2022-09-22T10:07:21.701Z,15.46
2022-09-22T10:12:29.755Z,15.65
2022-09-22T10:17:40.215Z,15.87
2022-09-22T10:22:42.648Z,16.07
2022-09-22T10:27:58.440Z,15.78
2022-09-22T10:33:15.053Z,16.08
2022-09-22T10:38:20.640Z,16.34
2022-09-22T10:43:37.317Z,16.49
2022-09-22T10:48:49.586Z,16.67
2022-09-22T10:54:29.913Z,16.61
2022-09-22T10:59:55.609Z,16.76
2022-09-22T11:05:02.763Z,16.58
2022-09-22T11:10:52.691Z,16.64
2022-09-22T11:16:11.615Z,17.04
2022-09-22T11:21:27.427Z,17.25
2022-09-22T11:26:44.207Z,17.38
2022-09-22T11:32:24.778Z,17.54
2022-09-22T11:37:43.162Z,17.33
2022-09-22T11:43:09.308Z,17.82
2022-09-22T11:48:29.769Z,18.08
2022-09-22T11:54:04.917Z,17.96
2022-09-22T11:59:35.950Z,17.58
2022-09-22T12:04:46.583Z,17.09
2022-09-22T12:10:07.082Z,17.04
2022-09-22T12:15:20.808Z,17.08
2022-09-22T12:20:30.227Z,17.54
2022-09-22T12:25:48.646Z,17.72
2022-09-22T12:30:53.873Z,17.33
2022-09-22T12:35:56.826Z,17.48
2022-09-22T12:41:02.873Z,17.82
2022-09-22T12:46:18.845Z,17.82
2022-09-22T12:51:26.386Z,18.17
2022-09-22T12:57:01.961Z,18.33
2022-09-22T13:02:18.702Z,18.29
2022-09-22T13:07:41.429Z,16.50
2022-09-22T13:13:06.175Z,15.45
2022-09-22T13:18:29.769Z,14.89
2022-09-22T13:23:31.608Z,15.37
2022-09-22T13:28:33.506Z,15.76
2022-09-22T13:33:36.228Z,15.89
2022-09-22T13:38:43.407Z,16.13
2022-09-22T13:43:48.741Z,16.11
2022-09-22T13:48:55.417Z,16.21
2022-09-22T13:53:57.884Z,16.10
2022-09-22T13:59:02.889Z,15.93
2022-09-22T14:04:24.616Z,16.09
2022-09-22T14:09:26.676Z,16.08
2022-09-22T14:14:28.984Z,16.17
2022-09-22T14:19:37.298Z,16.33
2022-09-22T14:24:47.272Z,16.51
2022-09-22T14:29:52.488Z,16.60
2022-09-22T14:35:00.968Z,16.73
2022-09-22T14:40:07.143Z,16.69
2022-09-22T14:45:08.906Z,16.70
2022-09-22T14:50:20.031Z,16.98
2022-09-22T14:55:39.029Z,17.03
2022-09-22T15:01:10.431Z,16.82
2022-09-22T15:06:14.460Z,16.61
2022-09-22T15:11:16.570Z,16.75
2022-09-22T15:16:37.233Z,16.76
2022-09-22T15:21:46.894Z,16.73
2022-09-22T15:26:48.770Z,16.72
2022-09-22T15:31:50.392Z,16.65
2022-09-22T15:36:53.202Z,16.63
2022-09-22T15:41:55.381Z,16.57
2022-09-22T15:47:01.243Z,16.58
2022-09-22T15:52:04.878Z,16.60
2022-09-22T15:57:06.560Z,16.60
2022-09-22T16:02:11.804Z,16.55
2022-09-22T16:07:14.223Z,16.55
2022-09-22T16:12:17.965Z,16.52
2022-09-22T16:17:24.616Z,16.43
2022-09-22T16:22:26.180Z,16.38
2022-09-22T16:27:29.423Z,16.30
2022-09-22T16:32:32.489Z,16.13
2022-09-22T16:37:34.405Z,16.08
2022-09-22T16:42:39.069Z,16.01
2022-09-22T16:47:40.714Z,15.93
2022-09-22T16:52:42.503Z,15.76
2022-09-22T16:57:44.156Z,15.61
2022-09-22T17:02:46.829Z,15.54
2022-09-22T17:07:49.996Z,15.49
2022-09-22T17:12:52.335Z,15.44
2022-09-22T17:17:53.862Z,15.30
2022-09-22T17:22:55.925Z,15.22
2022-09-22T17:27:57.819Z,15.15
2022-09-22T17:33:01.362Z,15.01
2022-09-22T17:38:03.157Z,14.90
2022-09-22T17:43:05.573Z,14.80
2022-09-22T17:48:26.580Z,14.72
2022-09-22T17:53:46.418Z,14.61
2022-09-22T17:58:48.210Z,14.47
2022-09-22T18:03:49.911Z,14.35
2022-09-22T18:08:51.880Z,14.24
2022-09-22T18:13:56.209Z,14.09
2022-09-22T18:18:58.287Z,13.98
2022-09-22T18:24:00.715Z,13.86
2022-09-22T18:29:04.429Z,13.74
2022-09-22T18:34:09.804Z,13.62
2022-09-22T18:39:13.096Z,13.51
2022-09-22T18:44:18.777Z,13.42
2022-09-22T18:49:21.582Z,13.29
2022-09-22T18:54:24.742Z,13.20
2022-09-22T18:59:28.027Z,13.07
2022-09-22T19:04:30.189Z,12.92
2022-09-22T19:09:33.093Z,12.81
2022-09-22T19:14:39.267Z,12.70
2022-09-22T19:19:42.231Z,12.57
2022-09-22T19:24:48.203Z,12.47
2022-09-22T19:29:50.673Z,12.34
2022-09-22T19:34:54.779Z,12.24
2022-09-22T19:39:56.803Z,12.13
2022-09-22T19:44:59.196Z,12.02
2022-09-22T19:50:00.990Z,11.77
2022-09-22T19:55:02.630Z,11.71
2022-09-22T20:00:08.807Z,11.65
2022-09-22T20:05:22.114Z,11.57
2022-09-22T20:10:24.305Z,11.47
2022-09-22T20:15:27.543Z,11.41
2022-09-22T20:20:31.742Z,11.37
2022-09-22T20:25:33.599Z,11.37
2022-09-22T20:30:35.271Z,11.25
2022-09-22T20:35:36.869Z,11.07
2022-09-22T20:40:39.438Z,11.06
2022-09-22T20:45:42.905Z,11.03
2022-09-22T20:51:02.722Z,10.96
2022-09-22T20:56:12.002Z,10.95
2022-09-22T21:01:15.211Z,10.88
2022-09-22T21:06:18.072Z,10.85
2022-09-22T21:11:20.304Z,10.76
2022-09-22T21:16:22.923Z,10.73
2022-09-22T21:21:24.732Z,10.67
2022-09-22T21:26:26.495Z,10.60
2022-09-22T21:31:28.412Z,10.58
2022-09-22T21:36:30.256Z,10.54
2022-09-22T21:41:32.301Z,10.55
2022-09-22T21:46:41.096Z,10.54
2022-09-22T21:51:44.404Z,10.52
2022-09-22T21:56:46.549Z,10.45
2022-09-22T22:01:48.532Z,10.35
2022-09-22T22:06:50.627Z,10.26
2022-09-22T22:11:58.022Z,10.23
2022-09-22T22:17:02.103Z,10.11
2022-09-22T22:22:04.233Z,10.03
2022-09-22T22:27:09.891Z,10.00
2022-09-22T22:32:11.780Z,9.95
2022-09-22T22:37:13.558Z,9.80
2022-09-22T22:42:15.110Z,9.74
2022-09-22T22:47:17.345Z,9.63
2022-09-22T22:52:19.300Z,9.68
2022-09-22T22:57:21.401Z,9.66
2022-09-22T23:02:23.596Z,9.64
2022-09-22T23:07:25.278Z,9.60
2022-09-22T23:12:27.102Z,9.56
2022-09-22T23:17:28.676Z,9.48
2022-09-22T23:22:30.633Z,9.42
2022-09-22T23:27:33.024Z,9.45
2022-09-22T23:32:34.606Z,9.44
2022-09-22T23:37:36.633Z,9.40
2022-09-22T23:42:38.457Z,9.38
2022-09-22T23:47:40.229Z,9.37
2022-09-22T23:52:41.988Z,9.34
2022-09-22T23:57:43.572Z,9.23
